ADDS METAR Data INFO
IDs: Format: Raw Decoded Include TAF

Data at: 1845 UTC 17 Oct 2017

KSRB 171835Z AUTO 00000KT 10SM CLR 18/05 A3029 RMK A01
KSRB 171815Z AUTO VRB03KT 10SM CLR 19/05 A3030 RMK A01
KSRB 171755Z AUTO 24004KT 10SM CLR 18/05 A3031 RMK A01
KSRB 171735Z AUTO 00000KT 10SM CLR 17/05 A3032 RMK A01
KSRB 171715Z AUTO 00000KT 10SM CLR 18/05 A3034 RMK A01
KSRB 171655Z AUTO 07004KT 10SM CLR 17/05 A3035 RMK A01
KSRB 171635Z AUTO 03004KT 10SM CLR 16/05 A3036 RMK A01
KSRB 171615Z AUTO 00000KT 10SM CLR 16/05 A3037 RMK A01
KSRB 171555Z AUTO 06003KT 10SM CLR 15/06 A3037 RMK A01
KSRB 171535Z AUTO VRB04KT 10SM CLR 15/06 A3038 RMK A01
KSRB 171515Z AUTO 13005KT 10SM CLR 14/06 A3038 RMK A01
KSRB 171455Z AUTO 00000KT 10SM CLR 13/07 A3038 RMK A01
KSRB 171435Z AUTO 00000KT 10SM CLR 12/07 A3038 RMK A01
KSRB 171415Z AUTO 00000KT 10SM CLR 11/07 A3038 RMK A01
KSRB 171355Z AUTO 00000KT 10SM CLR 09/07 A3038 RMK A01
KSRB 171335Z AUTO 00000KT 10SM CLR 08/06 A3037 RMK A01
KSRB 171315Z AUTO 00000KT 10SM CLR 07/06 A3036 RMK A01
KSRB 171255Z AUTO 00000KT 10SM CLR 06/05 A3035 RMK A01
KSRB 171235Z AUTO 00000KT 10SM CLR 05/04 A3035 RMK A01
KSRB 171215Z AUTO 00000KT 10SM CLR 03/03 A3034 RMK A01
KSRB 171155Z AUTO 00000KT 2SM BR CLR 02/02 A3033 RMK A01
KSRB 171135Z AUTO 00000KT 6SM BR CLR 02/02 A3034 RMK A01
KSRB 171115Z AUTO 00000KT 10SM CLR 02/02 A3033 RMK A01
KSRB 171055Z AUTO 00000KT 10SM CLR 02/02 A3032 RMK A01
KSRB 171035Z AUTO 00000KT 10SM CLR 02/02 A3032 RMK A01
KSRB 171015Z AUTO 00000KT 10SM CLR 03/02 A3032 RMK A01
KSRB 170955Z AUTO 00000KT 10SM CLR 03/03 A3031 RMK A01
KSRB 170935Z AUTO 00000KT 10SM CLR 04/03 A3031 RMK A01
KSRB 170915Z AUTO 00000KT 10SM CLR 03/03 A3030 RMK A01
KSRB 170855Z AUTO 06003KT 10SM CLR 03/03 A3030 RMK A01
KSRB 170835Z AUTO 00000KT 7SM CLR 03/03 A3030 RMK A01
KSRB 170815Z AUTO 00000KT 10SM CLR 03/03 A3029 RMK A01
KSRB 170755Z AUTO 00000KT 10SM CLR 04/03 A3029 RMK A01
KSRB 170735Z AUTO 00000KT 10SM CLR 04/04 A3029 RMK A01
KSRB 170715Z AUTO 01003KT 10SM CLR 05/05 A3029 RMK A01
KSRB 170655Z AUTO 00000KT 10SM CLR 05/05 A3030 RMK A01
KSRB 170635Z AUTO 00000KT 10SM CLR 04/04 A3030 RMK A01
KSRB 170615Z AUTO 00000KT 1SM BR CLR 04/03 A3030 RMK A01
KSRB 170555Z AUTO 00000KT 4SM BR CLR 03/03 A3030 RMK A01
KSRB 170535Z AUTO 00000KT 9SM CLR 04/04 A3030 RMK A01
KSRB 170515Z AUTO 00000KT 10SM CLR 04/04 A3030 RMK A01
KSRB 170455Z AUTO 00000KT 10SM CLR 04/04 A3030 RMK A01
KSRB 170435Z AUTO 00000KT 10SM CLR 04/04 A3030 RMK A01
KSRB 170415Z AUTO 00000KT 10SM CLR 04/04 A3030 RMK A01
KSRB 170355Z AUTO 00000KT 10SM CLR 05/05 A3030 RMK A01
KSRB 170335Z AUTO 00000KT 10SM CLR 05/05 A3030 RMK A01
KSRB 170315Z AUTO 00000KT 10SM CLR 06/05 A3030 RMK A01
KSRB 170255Z AUTO 00000KT 10SM CLR 06/05 A3030 RMK A01
KSRB 170235Z AUTO 00000KT 10SM CLR 06/05 A3030 RMK A01
KSRB 170215Z AUTO 00000KT 10SM CLR 06/05 A3029 RMK A01
KSRB 170155Z AUTO 00000KT 10SM CLR 06/06 A3029 RMK A01
KSRB 170135Z AUTO 00000KT 10SM CLR 06/06 A3029 RMK A01
KSRB 170115Z AUTO 00000KT 10SM CLR 07/06 A3028 RMK A01
KSRB 170055Z AUTO 00000KT 10SM CLR 07/06 A3028 RMK A01
KSRB 170035Z AUTO 00000KT 10SM CLR 07/06 A3028 RMK A01
KSRB 170015Z AUTO 00000KT 10SM CLR 09/07 A3027 RMK A01
KSRB 162355Z AUTO 00000KT 10SM CLR 10/06 A3027 RMK A01
KSRB 162335Z AUTO 00000KT 10SM CLR 12/06 A3026 RMK A01
KSRB 162315Z AUTO 02005KT 10SM CLR 13/05 A3026 RMK A01
KSRB 162255Z AUTO 02004KT 10SM CLR 14/05 A3026 RMK A01
KSRB 162235Z AUTO 03007KT 10SM CLR 15/05 A3025 RMK A01
KSRB 162215Z AUTO VRB05KT 10SM CLR 16/05 A3025 RMK A01
KSRB 162155Z AUTO 03006KT 10SM CLR 16/05 A3024 RMK A01
KSRB 162135Z AUTO 04006G14KT 10SM CLR 16/05 A3024 RMK A01
KSRB 162115Z AUTO 36007G13KT 340V040 10SM CLR 16/05 A3023 RMK A01
KSRB 162055Z AUTO 04009KT 10SM CLR 17/06 A3024 RMK A01
KSRB 162035Z AUTO 35009G15KT 330V030 10SM FEW046 17/05 A3024 RMK A01
KSRB 162015Z AUTO 02007G13KT 350V060 10SM SCT046 17/06 A3024 RMK A01
KSRB 161955Z AUTO 02008G15KT 340V050 10SM CLR 17/05 A3024 RMK A01
KSRB 161935Z AUTO 02010G18KT 340V050 10SM FEW047 17/05 A3025 RMK A01
KSRB 161915Z AUTO 01008G19KT 350V050 10SM FEW045 16/05 A3025 RMK A01
KSRB 161855Z AUTO 34007G15KT 10SM SCT045 16/06 A3026 RMK A01
KSRB 161835Z AUTO 01009G17KT 340V050 10SM FEW043 16/06 A3027 RMK A01
KSRB 161815Z AUTO 04009KT 10SM SCT040 16/06 A3027 RMK A01
KSRB 161755Z AUTO VRB05G12KT 10SM SCT040 16/06 A3028 RMK A01
KSRB 161735Z AUTO 04010KT 360V060 10SM FEW040 16/06 A3028 RMK A01
KSRB 161715Z AUTO 04011G18KT 10SM SCT037 16/06 A3029 RMK A01
KSRB 161655Z AUTO 36007G16KT 340V040 10SM BKN036 15/07 A3030 RMK A01
KSRB 161635Z AUTO VRB06G18KT 10SM FEW036 15/07 A3030 RMK A01
KSRB 161615Z AUTO 03008G21KT 350V060 10SM SCT035 15/06 A3030 RMK A01
KSRB 161555Z AUTO 01007G15KT 330V040 10SM BKN034 14/07 A3030 RMK A01
KSRB 161535Z AUTO 03011KT 10SM SCT030 BKN035 13/06 A3030 RMK A01
KSRB 161515Z AUTO VRB05G16KT 10SM BKN030 14/06 A3030 RMK A01
KSRB 161455Z AUTO 03011KT 10SM BKN028 13/07 A3029 RMK A01
KSRB 161055Z AUTO VRB05KT 10SM OVC032 10/07 A3023 RMK A01